Time;durP1;ratioP1;P1;durP2;ratioP2;P2;SDS_P1;SDS_P2;PMS_P1;PMS_P2;Temp;Humidity;BMP_temperature;BMP_pressure;BME280_temperature;BME280_humidity;BME280_pressure;Samples;Min_cycle;Max_cycle;Signal;HPM_P1;HPM_P2
2022/11/05 00:17:11;;;;;;;45.72;17.05;;;4.40;99.90;;;;;;5016619;28;20040;-72
2022/11/05 00:19:38;;;;;;;40.63;15.75;;;4.50;99.90;;;;;;5034893;28;20045;-76
2022/11/05 00:27:38;;;;;;;45.63;16.40;;;4.50;99.90;;;;;;5035074;28;20495;-75
2022/11/05 00:30:06;;;;;;;47.38;16.63;;;6.20;99.90;;;;;;5034221;28;20049;-77
2022/11/05 00:32:36;;;;;;;48.42;17.20;;;4.50;99.90;;;;;;5018131;28;20499;-76
2022/11/05 00:35:05;;;;;;;54.33;17.50;;;5.50;99.90;;;;;;5035428;28;20045;-74
2022/11/05 00:37:33;;;;;;;43.58;16.05;;;4.60;99.90;;;;;;5034703;28;20053;-75
2022/11/05 00:40:01;;;;;;;52.45;17.55;;;5.50;99.90;;;;;;5017570;28;20053;-71
2022/11/05 00:45:16;;;;;;;52.42;17.90;;;5.60;99.90;;;;;;5035121;28;20056;-72
2022/11/05 00:50:30;;;;;;;49.45;17.70;;;5.00;99.90;;;;;;5033811;28;20041;-75
2022/11/05 00:52:59;;;;;;;48.22;16.70;;;6.60;99.90;;;;;;5030820;28;20049;-73
2022/11/05 00:55:29;;;;;;;44.05;16.67;;;6.00;99.90;;;;;;5053281;28;20318;-74
2022/11/05 00:57:57;;;;;;;51.97;17.73;;;5.30;99.90;;;;;;5055080;28;20049;-75
2022/11/05 01:00:27;;;;;;;48.70;17.65;;;6.00;99.90;;;;;;5054793;28;20049;-76
2022/11/05 01:02:58;;;;;;;47.67;16.13;;;5.40;99.90;;;;;;5053616;28;20064;-73
2022/11/05 01:05:27;;;;;;;46.25;16.25;;;5.40;99.90;;;;;;5054392;28;20489;-74
2022/11/05 01:07:55;;;;;;;43.60;16.30;;;5.40;99.90;;;;;;5054344;28;20072;-73
2022/11/05 01:10:23;;;;;;;;;;;7.20;99.90;;;;;;5053686;28;20049;-75
2022/11/05 01:12:51;;;;;;;35.35;14.45;;;5.50;99.90;;;;;;5054721;28;19928;-75
2022/11/05 01:15:19;;;;;;;34.13;14.65;;;5.50;99.90;;;;;;5038784;28;20056;-73
2022/11/05 01:17:47;;;;;;;37.50;14.93;;;5.50;99.90;;;;;;5058258;28;20127;-74
2022/11/05 01:20:15;;;;;;;33.92;13.50;;;5.60;99.90;;;;;;5058230;28;20468;-74
2022/11/05 01:22:42;;;;;;;35.50;14.10;;;5.60;99.90;;;;;;5057197;28;20044;-75
2022/11/05 01:25:10;;;;;;;36.22;13.73;;;7.40;99.90;;;;;;5058516;28;20082;-75
2022/11/05 01:27:38;;;;;;;30.92;13.38;;;6.10;99.90;;;;;;5058102;28;20053;-75
2022/11/05 01:30:06;;;;;;;35.03;12.52;;;5.70;99.90;;;;;;5057112;28;20052;-75
2022/11/05 01:32:35;;;;;;;34.95;12.80;;;5.70;99.90;;;;;;5057951;28;20048;-75
2022/11/05 01:35:09;;;;;;;33.83;13.10;;;5.70;99.90;;;;;;5058418;28;20451;-73
2022/11/05 01:37:37;;;;;;;31.63;12.25;;;5.80;99.90;;;;;;5058216;28;20380;-73
2022/11/05 01:40:06;;;;;;;30.65;12.90;;;6.90;99.90;;;;;;5058046;28;20068;-76
2022/11/05 01:42:34;;;;;;;36.20;11.98;;;5.70;99.90;;;;;;5056874;28;20045;-75
2022/11/05 01:45:21;;;;;;;34.22;11.65;;;5.70;99.90;;;;;;5057843;28;20045;-74
2022/11/05 01:48:07;;;;;;;28.75;11.60;;;5.80;99.90;;;;;;5057959;28;20056;-77
2022/11/05 01:50:59;;;;;;;34.05;12.25;;;5.80;99.90;;;;;;5056880;28;20049;-72
2022/11/05 01:53:30;;;;;;;31.33;10.88;;;7.60;99.90;;;;;;5056433;28;20045;-74
2022/11/05 01:56:18;;;;;;;25.40;10.95;;;7.00;99.90;;;;;;5056979;28;20055;-72
2022/11/05 01:59:02;;;;;;;25.80;10.10;;;5.90;99.90;;;;;;5057808;28;20040;-75
2022/11/05 02:01:30;;;;;;;28.42;10.02;;;5.90;99.90;;;;;;5057554;28;20463;-72
2022/11/05 02:04:03;;;;;;;26.52;10.15;;;6.00;99.90;;;;;;5056303;28;20052;-71
2022/11/05 02:06:34;;;;;;;26.75;9.38;;;7.80;99.90;;;;;;5057022;28;20045;-74
2022/11/05 02:09:07;;;;;;;21.88;8.40;;;8.10;99.90;;;;;;5056392;28;20056;-75
2022/11/05 02:11:34;;;;;;;24.20;9.40;;;5.90;99.90;;;;;;5057698;28;20049;-74
2022/11/05 02:14:02;;;;;;;23.70;7.88;;;7.60;99.90;;;;;;5057515;28;20049;-74
2022/11/05 02:16:54;;;;;;;22.25;7.55;;;7.80;99.90;;;;;;5056362;28;20384;-74
2022/11/05 02:19:56;;;;;;;26.42;7.40;;;7.40;99.90;;;;;;5057593;28;20044;-74
2022/11/05 02:22:45;;;;;;;17.27;6.93;;;6.00;99.90;;;;;;5055498;28;20037;-76
2022/11/05 02:25:26;;;;;;;23.33;6.75;;;5.90;99.90;;;;;;5056332;28;20045;-74
2022/11/05 02:28:35;;;;;;;23.60;6.78;;;5.90;99.90;;;;;;5057537;28;20041;-75
2022/11/05 02:31:19;;;;;;;18.38;5.97;;;5.90;99.90;;;;;;5030584;28;20063;-74
2022/11/05 02:33:55;;;;;;;17.92;5.85;;;6.00;99.90;;;;;;5057188;28;20049;-76
2022/11/05 02:36:29;;;;;;;15.07;5.20;;;5.90;99.90;;;;;;5054846;28;20045;-76
2022/11/05 02:39:10;;;;;;;18.02;5.25;;;6.40;99.90;;;;;;5056212;28;20037;-74
2022/11/05 02:42:04;;;;;;;17.50;5.43;;;5.90;99.90;;;;;;5057085;28;20368;-73
2022/11/05 02:44:36;;;;;;;14.23;4.75;;;6.50;99.90;;;;;;5057074;28;20366;-74
2022/11/05 02:47:39;;;;;;;13.32;4.70;;;7.20;99.90;;;;;;5056942;28;20052;-74
2022/11/05 02:50:30;;;;;;;16.23;4.85;;;5.90;99.90;;;;;;5054882;28;20049;-72
2022/11/05 02:53:09;;;;;;;14.57;4.57;;;5.80;99.90;;;;;;5052528;28;20475;-74
2022/11/05 02:55:48;;;;;;;15.30;4.60;;;5.80;99.90;;;;;;5018618;28;20046;-72
2022/11/05 02:58:15;;;;;;;;;;;5.80;99.90;;;;;;5037409;28;20045;-73
2022/11/05 03:00:52;;;;;;;14.15;4.32;;;5.70;99.90;;;;;;5019738;28;19921;-75
2022/11/05 03:03:38;;;;;;;15.32;4.60;;;5.70;99.90;;;;;;5018636;28;20057;-71
2022/11/05 03:06:30;;;;;;;14.32;4.32;;;5.70;99.90;;;;;;5036669;28;20056;-76
2022/11/05 03:09:09;;;;;;;15.05;4.15;;;5.60;99.90;;;;;;5035346;28;20376;-75
2022/11/05 03:12:01;;;;;;;15.63;4.45;;;5.60;99.90;;;;;;5036569;28;20048;-73
2022/11/05 03:14:50;;;;;;;16.05;4.78;;;5.60;99.90;;;;;;5019152;28;20045;-74
2022/11/05 03:17:26;;;;;;;19.65;5.47;;;5.60;99.90;;;;;;5017812;28;20045;-75
2022/11/05 03:20:23;;;;;;;18.00;4.90;;;5.60;99.90;;;;;;5036432;28;20056;-76
2022/11/05 03:22:57;;;;;;;18.93;5.60;;;5.70;99.90;;;;;;5033395;28;20045;-74
2022/11/05 03:25:27;;;;;;;13.05;4.70;;;7.60;99.90;;;;;;5036303;28;20042;-72
2022/11/05 03:27:59;;;;;;;17.98;5.15;;;5.70;99.90;;;;;;5036392;28;20350;-74
2022/11/05 03:30:27;;;;;;;21.55;5.63;;;5.70;99.90;;;;;;5034844;28;20046;-72
2022/11/05 03:32:59;;;;;;;15.27;5.25;;;8.10;99.90;;;;;;5035881;28;20053;-74
2022/11/05 03:35:51;;;;;;;19.13;5.35;;;5.80;99.90;;;;;;5034931;28;20673;-75
2022/11/05 03:38:23;;;;;;;16.33;5.70;;;5.80;99.90;;;;;;5017808;28;20359;-74
2022/11/05 03:40:54;;;;;;;16.98;5.32;;;5.90;99.90;;;;;;5035984;28;20041;-72
2022/11/05 03:43:27;;;;;;;23.42;6.32;;;6.00;99.90;;;;;;5034786;28;20048;-72
2022/11/05 03:46:20;;;;;;;18.27;5.78;;;6.80;99.90;;;;;;5035807;28;20342;-74
2022/11/05 03:48:51;;;;;;;19.02;6.38;;;6.00;99.90;;;;;;5017549;28;20053;-75
2022/11/05 03:51:34;;;;;;;23.77;6.32;;;6.80;99.90;;;;;;5018462;28;20045;-73
2022/11/05 03:54:03;;;;;;;18.17;6.40;;;8.10;99.90;;;;;;5035858;28;20057;-74
2022/11/05 03:56:55;;;;;;;23.38;6.60;;;6.00;99.90;;;;;;5034287;28;20468;-76
2022/11/05 03:59:23;;;;;;;19.50;6.43;;;6.10;99.90;;;;;;5036105;28;20373;-76
2022/11/05 04:01:52;;;;;;;;;;;7.30;99.90;;;;;;5034860;28;20049;-74
2022/11/05 04:04:20;;;;;;;17.77;6.53;;;6.10;99.90;;;;;;5035486;28;20344;-72
2022/11/05 04:15:06;;;;;;;24.48;6.15;;;6.10;99.90;;;;;;5035067;28;20068;-74
2022/11/05 04:17:33;;;;;;;15.95;5.95;;;6.10;99.90;;;;;;5017732;28;20041;-76
2022/11/05 04:25:33;;;;;;;17.17;5.13;;;6.20;99.90;;;;;;5035069;28;20046;-72
2022/11/05 04:28:00;;;;;;;27.55;5.43;;;6.20;99.90;;;;;;5017527;28;20045;-74
2022/11/05 04:30:28;;;;;;;16.08;5.25;;;6.20;99.90;;;;;;5016509;28;20072;-73
2022/11/05 04:32:59;;;;;;;18.17;5.60;;;6.30;99.90;;;;;;5035120;28;20053;-76
2022/11/05 04:35:33;;;;;;;12.77;5.30;;;6.30;99.90;;;;;;5033937;28;20405;-72
2022/11/05 04:38:01;;;;;;;19.13;5.05;;;7.00;99.90;;;;;;5017331;28;20376;-72
2022/11/05 04:40:29;;;;;;;15.35;5.15;;;7.50;99.90;;;;;;5034831;28;20391;-73
2022/11/05 04:42:57;;;;;;;19.73;5.45;;;6.30;99.90;;;;;;5033783;28;20041;-73
2022/11/05 04:45:26;;;;;;;17.08;5.07;;;6.40;99.90;;;;;;5034944;28;20046;-74
2022/11/05 04:47:54;;;;;;;20.13;5.15;;;6.40;99.90;;;;;;5034800;28;20041;-74
2022/11/05 04:50:22;;;;;;;20.10;5.80;;;6.40;99.90;;;;;;5033511;28;20056;-74
2022/11/05 04:52:49;;;;;;;18.02;4.32;;;8.30;99.90;;;;;;5034349;28;20067;-75
2022/11/05 04:55:17;;;;;;;15.70;4.95;;;7.60;99.90;;;;;;5016820;28;20050;-75
2022/11/05 04:57:51;;;;;;;14.00;4.47;;;6.40;99.90;;;;;;5017114;28;20527;-76
2022/11/05 05:00:20;;;;;;;16.00;4.80;;;6.50;99.90;;;;;;5034572;28;20049;-76
2022/11/05 05:02:48;;;;;;;18.35;4.85;;;6.60;99.90;;;;;;5033416;28;20046;-72
2022/11/05 05:05:16;;;;;;;15.48;4.53;;;6.60;99.90;;;;;;5034736;28;20041;-76
2022/11/05 05:07:43;;;;;;;19.08;4.70;;;6.50;99.90;;;;;;5034462;28;20472;-73
2022/11/05 05:10:11;;;;;;;16.63;4.82;;;6.50;99.90;;;;;;5016276;28;20068;-72
2022/11/05 05:12:38;;;;;;;11.13;4.30;;;6.50;99.90;;;;;;5034660;28;20065;-74
2022/11/05 05:15:06;;;;;;;17.90;4.75;;;7.00;99.90;;;;;;5034454;28;20050;-76
2022/11/05 05:17:34;;;;;;;13.23;4.00;;;7.50;99.90;;;;;;5017020;28;20469;-72
2022/11/05 05:22:53;;;;;;;22.20;4.78;;;6.60;99.90;;;;;;5033425;28;20042;-76
2022/11/05 05:25:21;;;;;;;20.23;5.03;;;8.30;99.90;;;;;;5017163;28;20056;-73
2022/11/05 05:27:49;;;;;;;16.23;4.47;;;8.30;99.90;;;;;;5034304;28;20064;-75
2022/11/05 05:30:16;;;;;;;17.58;4.63;;;8.80;99.90;;;;;;5016048;28;20053;-75
2022/11/05 05:32:44;;;;;;;16.92;4.18;;;7.90;99.90;;;;;;5016853;28;20053;-73
2022/11/05 05:35:11;;;;;;;13.80;4.60;;;7.60;99.90;;;;;;5016342;28;20049;-76
2022/11/05 05:37:39;;;;;;;18.83;4.85;;;6.80;99.90;;;;;;5034142;28;20050;-74
2022/11/05 05:40:07;;;;;;;18.73;4.80;;;6.90;99.90;;;;;;5034159;28;20052;-75
2022/11/05 05:42:35;;;;;;;19.05;4.35;;;6.70;99.90;;;;;;4999494;28;20049;-75
2022/11/05 05:45:10;;;;;;;19.08;4.43;;;7.60;99.90;;;;;;5017090;28;20273;-76
2022/11/05 05:47:37;;;;;;;20.05;4.57;;;6.90;99.90;;;;;;5017152;28;20044;-74
2022/11/05 05:50:05;;;;;;;18.38;4.40;;;7.70;99.90;;;;;;5016229;28;20369;-73
2022/11/05 05:52:33;;;;;;;21.20;4.32;;;6.70;99.90;;;;;;5033905;28;20468;-72
2022/11/05 05:55:00;;;;;;;20.77;4.22;;;8.80;99.90;;;;;;5034045;28;20045;-72
2022/11/05 05:57:27;;;;;;;16.33;4.70;;;6.80;99.90;;;;;;5033090;28;20052;-75
2022/11/05 05:59:55;;;;;;;15.15;4.78;;;7.50;99.90;;;;;;5034440;28;20064;-76
2022/11/05 06:02:22;;;;;;;19.58;4.40;;;7.00;99.90;;;;;;5036637;28;20049;-77
2022/11/05 06:04:50;;;;;;;17.20;4.47;;;8.50;99.90;;;;;;5037844;28;20522;-74
2022/11/05 06:07:17;;;;;;;20.27;4.60;;;7.00;99.90;;;;;;5020256;28;20046;-75
2022/11/05 06:09:45;;;;;;;12.98;4.53;;;7.30;99.90;;;;;;5036397;28;20049;-77
2022/11/05 06:12:13;;;;;;;21.35;4.30;;;7.20;99.90;;;;;;5037838;28;20072;-73
2022/11/05 06:14:41;;;;;;;19.08;3.90;;;7.20;99.90;;;;;;5037959;28;20068;-74
2022/11/05 06:17:08;;;;;;;16.15;3.90;;;7.20;99.90;;;;;;5036435;28;20049;-76
2022/11/05 06:19:35;;;;;;;19.50;3.78;;;7.30;99.90;;;;;;5037310;28;20041;-74
2022/11/05 06:22:03;;;;;;;15.70;3.57;;;7.30;99.90;;;;;;5018722;28;20049;-75
2022/11/05 06:24:30;;;;;;;13.18;3.38;;;9.00;99.90;;;;;;5037138;28;20594;-72
2022/11/05 06:26:58;;;;;;;14.15;3.95;;;8.90;99.90;;;;;;5037215;28;20045;-74
2022/11/05 06:29:26;;;;;;;18.88;3.45;;;7.60;99.90;;;;;;5018714;28;20050;-76
2022/11/05 06:31:54;;;;;;;22.02;3.80;;;7.90;99.90;;;;;;5036942;28;20387;-74
2022/11/05 06:34:22;;;;;;;16.15;3.65;;;8.90;99.90;;;;;;5037025;28;20378;-75
2022/11/05 06:36:49;;;;;;;20.98;2.95;;;7.50;99.90;;;;;;5019130;28;20064;-75
2022/11/05 06:39:16;;;;;;;18.00;3.15;;;9.80;99.90;;;;;;5036884;28;20369;-74
2022/11/05 06:41:44;;;;;;;17.02;2.95;;;7.60;99.90;;;;;;5037225;28;20364;-75
2022/11/05 06:44:31;;;;;;;17.05;2.53;;;8.70;99.90;;;;;;5037013;28;20048;-72
2022/11/05 06:46:59;;;;;;;23.52;2.78;;;7.70;99.90;;;;;;5037083;28;20121;-72
2022/11/05 06:49:26;;;;;;;12.95;2.60;;;7.70;99.90;;;;;;5035783;28;20053;-72
2022/11/05 06:51:54;;;;;;;12.73;2.25;;;9.50;99.90;;;;;;5036944;28;20046;-72
2022/11/05 06:54:21;;;;;;;9.25;2.20;;;7.80;99.90;;;;;;5031544;28;20052;-76
2022/11/05 06:56:49;;;;;;;11.00;2.35;;;9.30;99.90;;;;;;5056026;28;20045;-72
2022/11/05 06:59:17;;;;;;;12.55;2.40;;;7.80;99.90;;;;;;5039911;28;20045;-75
2022/11/05 07:01:44;;;;;;;8.05;2.03;;;8.50;99.90;;;;;;5056632;28;20041;-74
2022/11/05 07:04:12;;;;;;;10.48;1.98;;;9.70;99.90;;;;;;5055988;28;20045;-74
2022/11/05 07:06:39;;;;;;;12.30;2.15;;;7.90;99.90;;;;;;5055942;28;20056;-76
2022/11/05 07:09:07;;;;;;;10.77;1.95;;;8.70;99.90;;;;;;5055481;28;20060;-73
2022/11/05 07:11:34;;;;;;;12.57;2.00;;;7.90;99.90;;;;;;5055482;28;20045;-73
2022/11/05 07:14:02;;;;;;;14.23;2.22;;;7.90;99.90;;;;;;5055451;28;20049;-74
2022/11/05 07:16:29;;;;;;;6.90;1.70;;;8.00;99.90;;;;;;5054194;28;20053;-72
2022/11/05 07:18:57;;;;;;;10.55;2.15;;;10.10;99.90;;;;;;5056072;28;20052;-74
2022/11/05 07:21:24;;;;;;;13.25;1.73;;;8.00;99.90;;;;;;5056289;28;20052;-73
2022/11/05 07:23:52;;;;;;;13.07;1.55;;;8.90;99.90;;;;;;5055030;28;20041;-74
2022/11/05 07:26:19;;;;;;;11.40;1.88;;;10.10;99.90;;;;;;5055369;28;20045;-76
2022/11/05 07:28:47;;;;;;;10.63;1.95;;;8.10;99.90;;;;;;5053933;28;20621;-74
2022/11/05 07:31:14;;;;;;;16.00;2.22;;;8.10;99.90;;;;;;5055590;28;20049;-72
2022/11/05 07:33:44;;;;;;;15.25;2.20;;;8.20;99.90;;;;;;5055866;28;20041;-75
2022/11/05 07:36:13;;;;;;;12.80;2.20;;;10.00;99.90;;;;;;5053988;28;20478;-73
2022/11/05 07:38:41;;;;;;;14.80;2.10;;;8.30;99.90;;;;;;5055674;28;20056;-76
2022/11/05 07:41:08;;;;;;;13.25;2.33;;;10.40;99.90;;;;;;5055910;28;20041;-74
2022/11/05 07:43:36;;;;;;;14.73;2.80;;;9.90;99.90;;;;;;5052795;28;20044;-75
2022/11/05 07:46:03;;;;;;;15.20;2.97;;;10.30;99.90;;;;;;5055608;28;20049;-75
2022/11/05 07:48:36;;;;;;;13.40;2.90;;;8.30;99.90;;;;;;5054745;28;20044;-73
2022/11/05 07:51:03;;;;;;;17.55;3.15;;;8.40;99.90;;;;;;5055607;28;20045;-75
2022/11/05 07:53:31;;;;;;;18.10;3.15;;;8.40;99.90;;;;;;5046350;28;20060;-73
2022/11/05 07:56:00;;;;;;;10.98;2.40;;;10.00;99.90;;;;;;5016872;28;20041;-75
2022/11/05 07:58:27;;;;;;;16.08;3.10;;;9.10;99.90;;;;;;5035739;28;20052;-73
2022/11/05 08:00:56;;;;;;;21.23;3.15;;;9.10;99.90;;;;;;5035464;28;20056;-71
2022/11/05 08:03:23;;;;;;;16.20;3.05;;;8.60;99.90;;;;;;5017551;28;20042;-74
2022/11/05 08:05:51;;;;;;;11.15;3.50;;;9.60;99.90;;;;;;5054692;28;20380;-72
2022/11/05 08:08:19;;;;;;;18.90;3.25;;;9.90;99.90;;;;;;5054920;28;20051;-73
2022/11/05 08:10:46;;;;;;;12.45;2.90;;;9.50;99.90;;;;;;5053716;28;20045;-72
2022/11/05 08:13:14;;;;;;;17.33;3.00;;;8.70;99.90;;;;;;5037438;28;20049;-74
2022/11/05 08:15:42;;;;;;;;;;;9.80;99.90;;;;;;5037017;28;20464;-73
2022/11/05 08:18:15;;;;;;;15.60;2.90;;;8.80;99.90;;;;;;5054829;28;19920;-75
2022/11/05 08:20:44;;;;;;;15.38;2.72;;;10.80;99.90;;;;;;5054388;28;20100;-75
2022/11/05 08:23:11;;;;;;;11.48;3.45;;;8.80;99.90;;;;;;5053111;28;20475;-74
2022/11/05 08:25:40;;;;;;;18.83;3.10;;;10.80;99.90;;;;;;5021165;28;20044;-74
2022/11/05 08:28:11;;;;;;;13.45;2.90;;;8.80;99.90;;;;;;5054621;28;20060;-71
2022/11/05 08:30:38;;;;;;;18.45;2.88;;;10.70;99.90;;;;;;5053580;28;20052;-72
2022/11/05 08:33:09;;;;;;;16.88;2.78;;;8.90;99.90;;;;;;5054548;28;20049;-74
2022/11/05 08:35:38;;;;;;;13.95;3.03;;;10.50;99.90;;;;;;5053062;28;20344;-73
2022/11/05 08:38:07;;;;;;;15.38;3.38;;;9.10;99.90;;;;;;5037008;28;20384;-72
2022/11/05 08:40:36;;;;;;;12.23;2.90;;;9.00;99.90;;;;;;5036937;28;20352;-74
2022/11/05 08:43:06;;;;;;;11.90;3.03;;;10.90;99.90;;;;;;5035792;28;20064;-73
2022/11/05 08:45:38;;;;;;;12.43;3.28;;;9.90;99.90;;;;;;5037082;28;20045;-73
2022/11/05 08:48:10;;;;;;;18.55;3.38;;;9.10;99.90;;;;;;5054048;28;20048;-72
2022/11/05 08:50:38;;;;;;;13.90;2.90;;;9.10;99.90;;;;;;5053367;28;20083;-74
2022/11/05 08:53:07;;;;;;;17.15;3.15;;;10.10;99.90;;;;;;5036369;28;20376;-73
2022/11/05 08:55:37;;;;;;;20.02;3.20;;;9.20;99.90;;;;;;5047669;28;20049;-73
2022/11/05 08:58:16;;;;;;;18.92;2.95;;;9.20;99.90;;;;;;5045005;28;20053;-73
2022/11/05 09:00:46;;;;;;;21.98;3.00;;;9.30;99.90;;;;;;5035888;28;20392;-74
2022/11/05 09:03:15;;;;;;;18.13;2.78;;;9.30;99.90;;;;;;5033715;28;20376;-73
2022/11/05 09:05:43;;;;;;;13.88;2.78;;;10.80;99.90;;;;;;5054902;28;20064;-74
2022/11/05 09:08:13;;;;;;;14.48;2.83;;;10.00;99.90;;;;;;5037258;28;20069;-73
2022/11/05 09:10:41;;;;;;;12.88;2.60;;;10.20;99.90;;;;;;5032824;28;20060;-74
2022/11/05 09:13:09;;;;;;;;;;;9.80;99.90;;;;;;5035020;28;20046;-75
2022/11/05 09:15:44;;;;;;;13.07;2.60;;;9.60;99.90;;;;;;5033543;28;19928;-72
2022/11/05 09:18:13;;;;;;;12.75;2.83;;;9.80;99.90;;;;;;5034661;28;20049;-72
2022/11/05 09:20:41;;;;;;;15.15;3.15;;;10.70;99.90;;;;;;5034690;28;20049;-74
2022/11/05 09:23:10;;;;;;;13.20;3.92;;;10.80;99.90;;;;;;5016123;28;20472;-75
2022/11/05 09:25:38;;;;;;;20.55;3.60;;;9.90;99.90;;;;;;5034258;28;20041;-75
2022/11/05 09:28:13;;;;;;;15.85;2.80;;;10.00;99.90;;;;;;5034338;28;20072;-74
2022/11/05 09:30:46;;;;;;;21.25;3.05;;;10.10;99.90;;;;;;5033231;28;20080;-76
2022/11/05 09:33:14;;;;;;;17.20;2.58;;;10.10;99.90;;;;;;5034374;28;20053;-75
2022/11/05 09:35:41;;;;;;;;;;;10.20;99.90;;;;;;5035480;28;20048;-75
2022/11/05 09:38:09;;;;;;;14.20;3.05;;;10.10;99.90;;;;;;5038033;28;19941;-74
2022/11/05 09:40:54;;;;;;;11.93;2.90;;;10.20;99.90;;;;;;5023222;28;20042;-75
2022/11/05 09:43:26;;;;;;;15.38;2.97;;;10.80;99.90;;;;;;5037046;28;20048;-75
2022/11/05 09:46:06;;;;;;;19.10;2.70;;;10.30;99.90;;;;;;5040065;28;20477;-75
2022/11/05 09:48:36;;;;;;;15.77;2.85;;;10.40;99.90;;;;;;5039092;28;20057;-75
2022/11/05 09:51:05;;;;;;;13.57;2.95;;;10.40;99.90;;;;;;5046412;28;20518;-74
2022/11/05 09:53:36;;;;;;;18.15;3.17;;;10.40;99.90;;;;;;5038410;28;20046;-74
2022/11/05 09:56:04;;;;;;;12.65;3.00;;;10.50;99.90;;;;;;5036842;28;20058;-74
2022/11/05 09:58:55;;;;;;;12.85;2.90;;;10.60;99.90;;;;;;5037990;28;20049;-73
2022/11/05 10:01:29;;;;;;;15.43;3.47;;;10.60;99.90;;;;;;5019980;28;20341;-74
2022/11/05 10:04:00;;;;;;;20.33;3.30;;;10.80;99.90;;;;;;5036662;28;20360;-74
2022/11/05 10:06:28;;;;;;;15.10;3.08;;;10.90;99.90;;;;;;5037733;28;20488;-73
2022/11/05 10:09:18;;;;;;;18.45;3.55;;;11.00;99.90;;;;;;5036345;28;20050;-73
2022/11/05 10:11:52;;;;;;;18.38;3.60;;;11.10;99.90;;;;;;5038070;28;20469;-72
2022/11/05 10:14:24;;;;;;;16.50;3.33;;;11.30;99.90;;;;;;5020414;28;20049;-73
2022/11/05 10:17:21;;;;;;;14.48;3.58;;;11.30;99.90;;;;;;5036629;28;20104;-73
2022/11/05 10:20:00;;;;;;;15.38;3.10;;;11.30;99.90;;;;;;5019918;28;20041;-73
2022/11/05 10:22:27;;;;;;;13.27;3.38;;;11.20;99.90;;;;;;5036568;28;20061;-73
2022/11/05 10:24:55;;;;;;;12.75;3.40;;;11.80;99.90;;;;;;5036718;28;20045;-74
2022/11/05 10:27:35;;;;;;;15.85;3.28;;;11.20;99.90;;;;;;5019129;28;20049;-74
2022/11/05 10:30:03;;;;;;;14.23;3.13;;;11.20;99.90;;;;;;5017331;28;20041;-73
2022/11/05 10:32:35;;;;;;;16.65;3.60;;;11.20;99.90;;;;;;5035674;28;20460;-74
2022/11/05 10:35:05;;;;;;;17.38;3.55;;;11.20;99.90;;;;;;5036673;28;20045;-73
2022/11/05 10:37:34;;;;;;;17.00;3.55;;;11.10;99.90;;;;;;5019115;28;20041;-73
2022/11/05 10:40:18;;;;;;;14.27;3.38;;;11.10;99.90;;;;;;5019657;28;20053;-73
2022/11/05 10:42:57;;;;;;;14.88;3.63;;;11.10;99.90;;;;;;5035804;28;20045;-73
2022/11/05 10:45:43;;;;;;;13.55;2.85;;;11.00;99.90;;;;;;5036954;28;20042;-72
2022/11/05 10:48:19;;;;;;;11.43;2.47;;;11.00;99.90;;;;;;5036961;28;20041;-73
2022/11/05 10:50:47;;;;;;;11.98;2.95;;;11.00;99.90;;;;;;5035662;28;20045;-75
2022/11/05 10:53:25;;;;;;;15.07;3.35;;;11.00;99.90;;;;;;5036623;28;20045;-74
2022/11/05 10:55:53;;;;;;;12.10;2.70;;;11.10;99.90;;;;;;5018487;28;20049;-74
2022/11/05 10:58:27;;;;;;;13.18;3.42;;;11.10;99.90;;;;;;5050970;28;20057;-72
2022/11/05 11:00:55;;;;;;;9.07;3.40;;;12.10;99.90;;;;;;5056585;28;20491;-73
2022/11/05 11:03:45;;;;;;;15.73;3.70;;;11.20;99.90;;;;;;5055336;28;20052;-72
2022/11/05 11:06:24;;;;;;;18.00;3.35;;;11.20;99.90;;;;;;5039318;28;20052;-75
2022/11/05 11:08:54;;;;;;;11.07;2.70;;;11.30;99.90;;;;;;5055196;28;20049;-73
2022/11/05 11:11:35;;;;;;;15.75;3.40;;;11.40;99.90;;;;;;5056650;28;20060;-75
2022/11/05 11:14:10;;;;;;;9.98;3.42;;;11.60;99.90;;;;;;5056442;28;20053;-74
2022/11/05 11:16:43;;;;;;;15.40;3.22;;;11.60;99.90;;;;;;5055395;28;20045;-74
2022/11/05 11:19:22;;;;;;;10.93;2.70;;;11.70;99.90;;;;;;5056318;28;20049;-75
2022/11/05 11:22:11;;;;;;;12.68;2.97;;;11.80;99.90;;;;;;5055232;28;20580;-75
2022/11/05 11:24:47;;;;;;;9.38;3.10;;;11.90;99.90;;;;;;5055989;28;20045;-73
2022/11/05 11:27:27;;;;;;;10.30;3.10;;;12.00;99.90;;;;;;5056397;28;20510;-72
2022/11/05 11:30:01;;;;;;;16.17;3.78;;;12.10;99.90;;;;;;5037488;28;20060;-73
2022/11/05 11:32:36;;;;;;;13.88;3.65;;;12.20;99.90;;;;;;5054962;28;20463;-72
2022/11/05 11:35:07;;;;;;;13.90;3.63;;;12.30;99.90;;;;;;5055912;28;20037;-73
2022/11/05 11:37:40;;;;;;;20.15;3.85;;;12.30;99.90;;;;;;5056207;28;20052;-73
2022/11/05 11:40:21;;;;;;;14.75;4.03;;;12.30;99.90;;;;;;5055793;28;20506;-74
2022/11/05 11:42:56;;;;;;;13.13;3.92;;;12.40;99.90;;;;;;5054632;28;20056;-74
2022/11/05 11:45:26;;;;;;;14.35;3.85;;;12.40;99.90;;;;;;5055973;28;20071;-73
2022/11/05 11:47:55;;;;;;;13.75;4.07;;;12.40;99.90;;;;;;5037749;28;20053;-73
2022/11/05 11:50:41;;;;;;;19.27;4.25;;;12.30;99.90;;;;;;5054525;28;20044;-75
2022/11/05 11:53:34;;;;;;;16.20;4.30;;;12.30;99.90;;;;;;5055399;28;20053;-73
2022/11/05 11:56:15;;;;;;;14.98;3.75;;;12.40;99.90;;;;;;5054441;28;20052;-74
2022/11/05 11:58:46;;;;;;;15.88;3.83;;;12.40;99.90;;;;;;5055171;28;20049;-73
2022/11/05 12:01:22;;;;;;;15.90;3.78;;;12.40;99.90;;;;;;5055676;28;20052;-74
2022/11/05 12:04:02;;;;;;;14.57;4.18;;;12.40;99.90;;;;;;5054088;28;20049;-73
2022/11/05 12:06:39;;;;;;;16.10;4.00;;;12.40;99.90;;;;;;5038338;28;20056;-75
2022/11/05 12:09:12;;;;;;;17.33;4.03;;;12.40;99.90;;;;;;5054256;28;20068;-74
2022/11/05 12:12:04;;;;;;;16.63;4.45;;;12.40;99.90;;;;;;5055402;28;20048;-71
2022/11/05 12:14:55;;;;;;;17.23;4.13;;;12.40;99.90;;;;;;5055252;28;20051;-71
2022/11/05 12:17:40;;;;;;;11.90;3.92;;;12.40;99.90;;;;;;5054061;28;20053;-73
2022/11/05 12:20:29;;;;;;;18.23;4.40;;;12.50;99.90;;;;;;5045084;28;20041;-72
2022/11/05 12:23:12;;;;;;;16.83;3.75;;;12.50;99.90;;;;;;5017400;28;20120;-75
2022/11/05 12:26:05;;;;;;;17.02;3.90;;;12.50;99.90;;;;;;5042785;28;20056;-73
2022/11/05 12:29:05;;;;;;;15.35;3.75;;;12.50;99.90;;;;;;5036564;28;20056;-73
2022/11/05 12:32:05;;;;;;;16.50;4.30;;;12.50;99.90;;;;;;5037374;28;20052;-73
2022/11/05 12:35:17;;;;;;;20.05;3.97;;;12.50;99.90;;;;;;5038041;28;20053;-74
2022/11/05 12:37:57;;;;;;;16.45;3.63;;;12.50;99.90;;;;;;5041578;28;20467;-72
2022/11/05 12:40:54;;;;;;;19.55;3.85;;;12.40;99.90;;;;;;5054634;28;20053;-73
2022/11/05 12:43:31;;;;;;;23.90;3.67;;;12.40;99.90;;;;;;5035908;28;20053;-73
2022/11/05 12:46:35;;;;;;;20.25;3.75;;;12.40;99.90;;;;;;5037191;28;20041;-73
2022/11/05 12:49:46;;;;;;;16.65;3.58;;;12.30;99.90;;;;;;5053450;28;20041;-73
2022/11/05 12:52:35;;;;;;;21.50;3.40;;;12.30;99.90;;;;;;5040405;28;20049;-73
2022/11/05 12:55:19;;;;;;;18.38;3.13;;;12.30;99.90;;;;;;5054665;28;20055;-73
2022/11/05 12:57:50;;;;;;;18.05;3.60;;;12.30;99.90;;;;;;5054269;28;20384;-73
2022/11/05 13:00:22;;;;;;;22.55;4.07;;;12.30;99.90;;;;;;5052870;28;20068;-72
2022/11/05 13:03:02;;;;;;;22.70;3.75;;;12.30;99.90;;;;;;5051539;28;20060;-73
2022/11/05 13:05:36;;;;;;;16.52;3.40;;;12.30;99.90;;;;;;5053016;28;20056;-73
2022/11/05 13:08:26;;;;;;;27.63;3.67;;;12.30;99.90;;;;;;5053840;28;20049;-73
2022/11/05 13:10:59;;;;;;;26.45;3.70;;;12.30;99.90;;;;;;5020937;28;20045;-73
2022/11/05 13:13:37;;;;;;;19.98;3.50;;;12.30;99.90;;;;;;5038081;28;20058;-70
2022/11/05 13:16:16;;;;;;;27.33;3.67;;;12.30;99.90;;;;;;5019694;28;20050;-71
2022/11/05 13:18:55;;;;;;;27.60;3.80;;;12.30;99.90;;;;;;5037917;28;20053;-71
2022/11/05 13:21:27;;;;;;;16.08;3.10;;;12.30;99.90;;;;;;5020414;28;20057;-74
2022/11/05 13:24:16;;;;;;;24.58;3.35;;;12.20;99.90;;;;;;5036651;28;20048;-72
2022/11/05 13:26:57;;;;;;;23.70;3.13;;;12.20;99.90;;;;;;5037814;28;20372;-73
2022/11/05 13:30:00;;;;;;;22.90;3.17;;;12.20;99.90;;;;;;5036833;28;20056;-72
2022/11/05 13:32:43;;;;;;;29.30;3.47;;;12.20;99.90;;;;;;5037467;28;20049;-74
2022/11/05 13:35:20;;;;;;;20.55;3.00;;;12.30;99.90;;;;;;5036811;28;20045;-71
2022/11/05 13:40:50;;;;;;;29.35;3.10;;;12.30;99.90;;;;;;5037597;28;20057;-75
2022/11/05 13:43:57;;;;;;;24.70;3.10;;;12.30;99.90;;;;;;5036616;28;20373;-74
2022/11/05 13:46:55;;;;;;;23.33;3.40;;;12.40;99.90;;;;;;5037272;28;20060;-73
2022/11/05 13:49:31;;;;;;;22.00;2.92;;;12.40;99.90;;;;;;5036429;28;20060;-73
2022/11/05 13:52:21;;;;;;;24.10;3.00;;;12.40;99.90;;;;;;5037317;28;20054;-73
2022/11/05 13:55:27;;;;;;;19.52;2.63;;;12.50;99.90;;;;;;5037103;28;20057;-71
2022/11/05 13:58:08;;;;;;;23.02;2.80;;;12.50;99.90;;;;;;5019996;28;20049;-72
2022/11/05 14:00:45;;;;;;;22.92;2.80;;;12.60;99.90;;;;;;5019617;28;20060;-73
2022/11/05 14:03:19;;;;;;;18.33;2.60;;;12.60;99.90;;;;;;5036229;28;20046;-71
2022/11/05 14:06:21;;;;;;;19.50;2.90;;;12.90;99.90;;;;;;5037130;28;20282;-71